Terminal Aerodrome Forecast
Issued by NWS Jacksonville, FL

Home | Current Version | Previous Version | Text Only | Print | Product List | Glossary On
Versions: 1 2 3 4 5 6 7 8 9 10 11 12 13 14 15 16 17
000
FTUS42 KJAX 290500
TAFSSI
TAF
KSSI 290532Z 2906/3006 VRB03KT P6SM SKC
     FM291600 12010KT P6SM SCT040 SCT070
     FM300000 14009KT P6SM FEW030 SCT070=

USA.gov is the U.S. government's official web portal to all federal, state and local government web resources and services.